Terminal Aerodrome Forecast
Issued by NWS Sioux Falls, SD

Home | Current Version | Previous Version | Graphics & Text | Print | Product List | Glossary On
Versions: 1 2 3 4 5 6 7 8 9 10 11 12 13 14 15
000
FTUS43 KFSD 160525
TAFHON
TAF
KHON 160525Z 1606/1706 09005KT P6SM FEW250
     FM161100 13009KT P6SM BKN150
     FM161300 14013G21KT P6SM BKN100
     FM161600 15018G33KT P6SM BKN140
     FM170500 16014G22KT P6SM SCT200=

USA.gov is the U.S. government's official web portal to all federal, state and local government web resources and services.